Urk, Netherlands
Current Conditions -  °F | °C
As of 6:55 PM on Thursday 30 Oct 2014 (Local Time) from EHKD Reporting Station
Haze Haze  
Wind Chill: 55°   Ceiling: 9900
Heat Index: 55°   Visibility: 1.3mi
Dew Point: 55°   Wind: 7mph
Humidity: 100%   Direction: 170°S
Pressure: 30.12"   Gusts: NA
Location:  52.66°N, 5.6°E
Report Text: EHKD 301755Z AUTO 17006KT 2100 R21/1800 BR BKN099 13/13 Q1020 YLO 14008KT 3000 BR SCT100 BECMG 5000
Loading
Personal Weather Stations






























Interactive Weather Map
Tropical Storm Tracking
New forecast layout! Learn more

10-Day Weather Forecast

Advertisements
Track Severe Weather on mobile